Airfield :
LOGIN :

Register | Disclaimer

   EN    FR    IT 

 










Legend :    VFR   Marginal VFR   IFR   Intensive IFR   Very Intensive IFR
Visi :
Ceiling :
>= 8 km
>= 3000ft
5 to 8 km
1000 to 3000 ft
1500m to 5 km
500 to 1000 ft
800 to 1500m
200 to 500 ft
< 800m
< 200 ft
Symbols :   Thunderstorms  Fog  Heavy snow  Heavy precipitations  Wind > 20 kt
SIGMETs :     Misc.  Thunderstorms  Icing  Turbulence  Mountain Waves  Volcanic Ashes






- Airport Elevation : 20 ft
- IATA code : TIV


LYTV - Tivat - Montenegro

CURRENT METAR :
  • 050800Z VRB03KT 9999 -RA FEW016 SCT033 OVC070 09/09 Q1009 NOSIG

EXPIRED METARs :
  • 050730Z 36001KT 9999 -RA FEW016 SCT033 OVC070 08/08 Q1009 NOSIG
  • 050700Z 06003KT 360V130 9999 FEW016 BKN033 OVC070 08/08 Q1009 NOSIG
  • 050630Z 36003KT 310V100 9999 -RA FEW016 BKN033 OVC070 08/08 Q1010 NOSIG
  • 050600Z 07004KT 350V120 9999 -RA FEW033 SCT040 OVC070 08/07 Q1010 NOSIG
  • 050530Z VRB02KT 9999 -RA BKN040 OVC070 08/07 Q1010 NOSIG

TAF TAF LYTV
Valid from the 05 at 06:00 until the 06 at 06:00 UTC


050500Z 0506/0606 16005KT 9999 BKN033 BKN070 TX15/0513Z TN08/0506Z
TEMPO 0506/0606 5000 RA
BECMG 0508/0510 18015KT
TEMPO 0510/0518 21018G30KT
PROB40
TEMPO 0510/0606 VRB15G25KT 3000 +TSRA SCT027CB BKN030



MET'MAP, your aeronautical weather chart ! - Copyright ORBIFLY December 2007 - Disclaimer

ORBIFLY MET'MAP TEAM :

Programming & Development : Alexandra Zaïnal
Concept & original design : Baudouin d'Aumeries
Assistance for programming : Marc-Olivier Méhu
Technical & hardware support : Manuel Goepfert

Contact : metmap@orbifly.com




SOURCES & CREDITS :

   NOAA